Time;durP1;ratioP1;P1;durP2;ratioP2;P2;SDS_P1;SDS_P2;PMS_P1;PMS_P2;Temp;Humidity;BMP_temperature;BMP_pressure;BME280_temperature;BME280_humidity;BME280_pressure;Samples;Min_cycle;Max_cycle;Signal;HPM_P1;HPM_P2
2021/11/18 00:00:26;;;;;;;18.07;11.83;;;8.40;99.90;;;;;;5026288;28;20432;-36
2021/11/18 00:02:53;;;;;;;19.13;12.27;;;8.30;99.90;;;;;;5021639;28;20592;-36
2021/11/18 00:05:22;;;;;;;26.23;13.60;;;8.60;99.90;;;;;;5020107;28;20525;-36
2021/11/18 00:07:50;;;;;;;22.20;11.83;;;8.40;99.90;;;;;;5014039;28;20424;-36
2021/11/18 00:10:30;;;;;;;22.70;13.17;;;8.30;99.90;;;;;;5008190;28;20472;-36
2021/11/18 00:12:57;;;;;;;18.00;11.47;;;8.40;99.90;;;;;;5014020;28;20418;-36
2021/11/18 00:15:26;;;;;;;16.03;12.63;;;8.40;99.90;;;;;;5006621;28;20525;-36
2021/11/18 00:17:58;;;;;;;19.20;13.67;;;8.20;99.90;;;;;;5012338;28;20441;-36
2021/11/18 00:20:27;;;;;;;18.33;13.00;;;8.40;99.90;;;;;;5022697;28;20443;-37
2021/11/18 00:22:53;;;;;;;24.97;14.20;;;8.30;99.90;;;;;;5023671;28;20421;-36
2021/11/18 00:25:19;;;;;;;20.60;12.83;;;8.10;99.90;;;;;;5006999;28;20418;-36
2021/11/18 00:27:44;;;;;;;21.33;13.87;;;8.20;99.90;;;;;;5009858;28;20784;-36
2021/11/18 00:30:12;;;;;;;25.57;13.37;;;8.00;99.90;;;;;;5008273;28;20473;-36
2021/11/18 00:32:38;;;;;;;20.73;12.47;;;8.00;99.90;;;;;;5008469;28;20203;-36
2021/11/18 00:35:07;;;;;;;18.63;11.97;;;7.90;99.90;;;;;;5016206;28;20421;-36
2021/11/18 00:37:33;;;;;;;19.97;12.97;;;8.00;99.90;;;;;;5019551;28;20444;-36
2021/11/18 00:39:59;;;;;;;22.23;12.67;;;8.10;99.90;;;;;;5008102;28;20434;-36
2021/11/18 00:42:24;;;;;;;19.43;12.67;;;8.10;99.90;;;;;;5019791;28;20452;-36
2021/11/18 00:44:52;;;;;;;19.13;12.23;;;8.10;99.90;;;;;;5015999;28;20187;-36
2021/11/18 00:47:18;;;;;;;23.40;13.20;;;8.20;99.90;;;;;;5027141;28;20190;-36
2021/11/18 00:49:44;;;;;;;19.57;13.00;;;8.40;99.90;;;;;;5019500;28;20855;-36
2021/11/18 00:52:09;;;;;;;21.40;12.97;;;8.40;99.90;;;;;;5020939;28;20569;-36
2021/11/18 00:54:35;;;;;;;18.63;13.83;;;8.20;99.90;;;;;;5007558;28;20209;-36
2021/11/18 00:57:01;;;;;;;23.90;15.20;;;8.30;99.90;;;;;;5013397;28;20728;-36
2021/11/18 00:59:29;;;;;;;27.03;14.93;;;8.30;99.90;;;;;;5007862;28;20191;-36
2021/11/18 01:01:54;;;;;;;24.67;15.50;;;8.40;99.90;;;;;;5007486;28;20187;-36
2021/11/18 01:04:21;;;;;;;26.90;15.40;;;8.10;99.90;;;;;;5006687;28;20444;-36
2021/11/18 01:06:48;;;;;;;25.30;15.10;;;8.00;99.90;;;;;;5014924;28;20278;-36
2021/11/18 01:09:14;;;;;;;24.27;15.27;;;7.90;99.90;;;;;;5007839;28;20579;-36
2021/11/18 01:11:41;;;;;;;22.40;15.37;;;7.90;99.90;;;;;;5010012;28;20524;-36
2021/11/18 01:14:09;;;;;;;24.87;15.40;;;7.80;99.90;;;;;;5006885;28;20480;-36
2021/11/18 01:16:42;;;;;;;26.53;16.07;;;7.90;99.90;;;;;;5007734;28;20493;-36
2021/11/18 01:19:08;;;;;;;24.43;15.37;;;8.00;99.90;;;;;;5008796;28;20460;-36
2021/11/18 01:21:35;;;;;;;25.40;16.30;;;7.90;99.90;;;;;;5013157;28;20509;-36
2021/11/18 01:24:02;;;;;;;22.90;15.33;;;7.80;99.90;;;;;;5009211;28;20785;-36
2021/11/18 01:26:28;;;;;;;29.17;17.00;;;7.80;99.90;;;;;;5009314;28;20437;-36
2021/11/18 01:28:54;;;;;;;32.77;18.33;;;8.00;99.90;;;;;;5016699;28;20435;-36
2021/11/18 01:31:20;;;;;;;28.60;15.87;;;7.60;99.90;;;;;;5007495;28;20187;-36
2021/11/18 01:33:47;;;;;;;25.47;15.37;;;7.70;99.90;;;;;;5013160;28;20186;-36
2021/11/18 01:36:13;;;;;;;25.23;15.60;;;7.70;99.90;;;;;;5013015;28;20462;-36
2021/11/18 01:38:39;;;;;;;26.57;16.40;;;7.80;99.90;;;;;;5014940;28;20572;-36
2021/11/18 01:41:09;;;;;;;27.00;15.57;;;7.70;99.90;;;;;;5010923;28;21059;-36
2021/11/18 01:43:40;;;;;;;31.07;17.87;;;7.80;99.90;;;;;;5017886;28;20414;-36
2021/11/18 01:46:11;;;;;;;23.33;14.97;;;7.70;99.90;;;;;;5030125;28;20491;-36
2021/11/18 01:48:37;;;;;;;26.70;15.40;;;7.80;99.90;;;;;;5030352;28;20536;-36
2021/11/18 01:51:04;;;;;;;31.23;17.43;;;7.60;99.90;;;;;;5022761;28;20421;-36
2021/11/18 01:53:37;;;;;;;25.53;15.93;;;7.80;99.90;;;;;;5026584;28;20424;-36
2021/11/18 01:56:08;;;;;;;25.10;16.67;;;7.60;99.90;;;;;;5010517;28;20453;-37
2021/11/18 01:58:36;;;;;;;28.27;15.97;;;7.70;99.90;;;;;;5012329;28;20430;-36
2021/11/18 02:01:04;;;;;;;29.93;16.00;;;7.90;99.90;;;;;;5010865;28;20418;-36
2021/11/18 02:03:29;;;;;;;28.63;16.13;;;7.90;99.90;;;;;;5010706;28;21164;-36
2021/11/18 02:06:05;;;;;;;24.90;16.07;;;7.80;99.90;;;;;;5022334;28;20500;-36
2021/11/18 02:08:32;;;;;;;26.67;17.13;;;7.80;99.90;;;;;;5025909;28;20545;-36
2021/11/18 02:11:02;;;;;;;27.43;15.63;;;7.80;99.90;;;;;;5010480;28;21028;-36
2021/11/18 02:13:31;;;;;;;27.07;15.83;;;7.60;99.90;;;;;;5021176;28;20851;-36
2021/11/18 02:15:59;;;;;;;26.43;16.40;;;7.80;99.90;;;;;;5009495;28;20516;-36
2021/11/18 02:18:24;;;;;;;25.40;17.27;;;7.70;99.90;;;;;;5010792;28;20924;-36
2021/11/18 02:20:56;;;;;;;28.03;17.40;;;7.70;99.90;;;;;;5020216;28;20426;-36
2021/11/18 02:23:28;;;;;;;30.10;16.17;;;7.70;99.90;;;;;;5017518;28;20195;-36
2021/11/18 02:25:55;;;;;;;25.57;14.40;;;7.90;99.90;;;;;;5010641;28;20560;-36
2021/11/18 02:28:23;;;;;;;23.60;14.97;;;7.70;99.90;;;;;;5017615;28;20476;-36
2021/11/18 02:30:50;;;;;;;27.20;15.20;;;7.60;99.90;;;;;;5010987;28;20994;-36
2021/11/18 02:33:17;;;;;;;23.17;14.17;;;7.90;99.90;;;;;;5009547;28;20504;-36
2021/11/18 02:35:45;;;;;;;22.60;14.10;;;7.80;99.90;;;;;;5022842;28;20456;-36
2021/11/18 02:38:11;;;;;;;20.40;13.10;;;7.80;99.90;;;;;;5019444;28;20414;-36
2021/11/18 02:40:37;;;;;;;22.27;14.60;;;7.70;99.90;;;;;;5016610;28;20433;-36
2021/11/18 02:43:05;;;;;;;22.80;14.10;;;7.80;99.90;;;;;;5012281;28;20444;-36
2021/11/18 02:45:34;;;;;;;19.67;14.73;;;7.90;99.90;;;;;;5024282;28;20425;-36
2021/11/18 02:48:00;;;;;;;21.40;14.83;;;7.90;99.90;;;;;;5029439;28;20791;-36
2021/11/18 02:50:33;;;;;;;17.60;13.60;;;7.80;99.90;;;;;;5017655;28;20449;-36
2021/11/18 02:53:00;;;;;;;22.27;14.53;;;8.00;99.90;;;;;;5021695;28;20505;-36
2021/11/18 02:55:29;;;;;;;21.90;14.83;;;7.80;99.90;;;;;;5014118;28;20596;-36
2021/11/18 02:57:56;;;;;;;19.80;13.60;;;7.90;99.90;;;;;;5017356;28;20445;-37
2021/11/18 03:00:27;;;;;;;23.33;14.47;;;7.90;99.90;;;;;;5012234;28;20509;-36
2021/11/18 03:02:54;;;;;;;27.03;16.17;;;7.90;99.90;;;;;;5009163;28;20729;-36
2021/11/18 03:05:21;;;;;;;22.40;14.70;;;8.10;99.90;;;;;;5011892;28;20457;-36
2021/11/18 03:07:47;;;;;;;29.67;16.10;;;8.00;99.90;;;;;;5019085;28;20463;-36
2021/11/18 03:10:17;;;;;;;24.97;15.23;;;7.90;99.90;;;;;;5009909;28;20446;-36
2021/11/18 03:12:43;;;;;;;23.87;14.80;;;7.70;99.90;;;;;;5014677;28;20916;-36
2021/11/18 03:15:11;;;;;;;21.20;13.63;;;7.50;99.90;;;;;;5011253;28;20414;-36
2021/11/18 03:17:37;;;;;;;24.73;14.93;;;7.60;99.90;;;;;;5009826;28;20442;-36
2021/11/18 03:20:09;;;;;;;28.10;15.47;;;7.60;99.90;;;;;;5008230;28;20444;-36
2021/11/18 03:22:35;;;;;;;24.47;15.47;;;7.90;99.90;;;;;;5017798;28;20429;-36
2021/11/18 03:25:00;;;;;;;26.60;14.77;;;7.60;99.90;;;;;;5022391;28;20429;-36
2021/11/18 03:27:26;;;;;;;28.00;16.43;;;7.70;99.90;;;;;;5012039;28;20195;-36
2021/11/18 03:29:52;;;;;;;27.23;15.57;;;7.70;99.90;;;;;;5010636;28;20458;-36
2021/11/18 03:32:17;;;;;;;24.30;14.27;;;7.90;99.90;;;;;;5009415;28;20284;-36
2021/11/18 03:34:43;;;;;;;27.97;14.77;;;7.60;99.90;;;;;;5012710;28;20198;-36
2021/11/18 03:37:10;;;;;;;22.60;13.70;;;7.60;99.90;;;;;;5021272;28;20214;-36
2021/11/18 03:39:38;;;;;;;21.20;14.90;;;7.60;99.90;;;;;;5014121;28;20480;-36
2021/11/18 03:42:07;;;;;;;21.73;13.73;;;7.60;99.90;;;;;;5008948;28;20465;-36
2021/11/18 03:44:34;;;;;;;29.30;15.33;;;7.50;99.90;;;;;;5027198;28;20544;-36
2021/11/18 03:47:03;;;;;;;22.83;13.83;;;7.50;99.90;;;;;;5028771;28;20429;-36
2021/11/18 03:49:29;;;;;;;21.60;13.83;;;7.40;99.90;;;;;;5025819;28;20445;-36
2021/11/18 03:51:58;;;;;;;22.07;13.50;;;7.30;99.90;;;;;;5018344;28;20427;-36
2021/11/18 03:54:26;;;;;;;24.13;14.13;;;7.40;99.90;;;;;;5012909;28;20687;-36
2021/11/18 03:56:52;;;;;;;26.10;14.07;;;7.40;99.90;;;;;;5008153;28;20560;-37
2021/11/18 03:59:25;;;;;;;22.90;14.87;;;7.50;99.90;;;;;;5017328;28;20430;-36
2021/11/18 04:01:51;;;;;;;27.53;14.43;;;7.40;99.90;;;;;;5008301;28;20275;-36
2021/11/18 04:04:24;;;;;;;26.40;14.67;;;7.60;99.90;;;;;;5009544;28;20426;-36
2021/11/18 04:06:50;;;;;;;20.33;13.57;;;7.30;99.90;;;;;;5022991;28;20430;-36
2021/11/18 04:09:16;;;;;;;21.17;12.57;;;7.50;99.90;;;;;;5027434;28;20490;-36
2021/11/18 04:11:45;;;;;;;26.13;13.97;;;7.50;99.90;;;;;;5013019;28;20457;-36
2021/11/18 04:14:12;;;;;;;26.30;13.00;;;7.60;99.90;;;;;;5012632;28;20757;-36
2021/11/18 04:16:38;;;;;;;25.80;13.50;;;7.60;99.90;;;;;;5007260;28;20462;-36
2021/11/18 04:19:05;;;;;;;27.13;14.37;;;7.60;99.90;;;;;;5007566;28;20422;-36
2021/11/18 04:21:32;;;;;;;21.20;13.03;;;7.60;99.90;;;;;;5017572;28;20829;-36
2021/11/18 04:24:00;;;;;;;23.70;12.30;;;7.40;99.90;;;;;;5021486;28;20513;-36
2021/11/18 04:26:26;;;;;;;25.70;14.07;;;7.70;99.90;;;;;;5011064;28;20429;-36
2021/11/18 04:28:52;;;;;;;20.33;12.47;;;7.50;99.90;;;;;;5017730;28;20425;-36
2021/11/18 04:31:20;;;;;;;24.90;12.63;;;7.50;99.90;;;;;;5011631;28;20434;-36
2021/11/18 04:33:46;;;;;;;20.80;12.53;;;7.50;99.90;;;;;;5007799;28;20801;-36
2021/11/18 04:36:14;;;;;;;24.13;13.30;;;7.40;99.90;;;;;;5013254;28;20525;-36
2021/11/18 04:38:40;;;;;;;24.40;13.37;;;7.60;99.90;;;;;;5023339;28;20425;-36
2021/11/18 04:41:08;;;;;;;24.80;12.80;;;7.40;99.90;;;;;;5008266;28;20861;-36
2021/11/18 04:43:34;;;;;;;21.17;12.60;;;7.50;99.90;;;;;;5013426;28;20772;-36
2021/11/18 04:46:01;;;;;;;23.17;12.10;;;7.60;99.90;;;;;;5027871;28;20426;-36
2021/11/18 04:48:27;;;;;;;24.97;12.50;;;7.70;99.90;;;;;;5027758;28;20532;-36
2021/11/18 04:50:53;;;;;;;25.87;13.40;;;7.80;99.90;;;;;;5014274;28;20598;-36
2021/11/18 04:53:19;;;;;;;28.30;13.87;;;7.30;99.90;;;;;;5020658;28;20440;-36
2021/11/18 04:55:46;;;;;;;23.90;13.67;;;7.50;99.90;;;;;;5022185;28;20210;-36
2021/11/18 04:58:12;;;;;;;23.20;13.00;;;7.30;99.90;;;;;;5009810;28;20623;-36
2021/11/18 05:00:51;;;;;;;30.10;15.50;;;7.50;99.90;;;;;;5009355;28;20461;-36
2021/11/18 05:03:18;;;;;;;26.87;13.47;;;7.30;99.90;;;;;;5007222;28;20430;-36
2021/11/18 05:05:45;;;;;;;22.17;12.90;;;7.50;99.90;;;;;;5013219;28;20551;-36
2021/11/18 05:08:12;;;;;;;27.00;14.77;;;7.40;99.90;;;;;;5017806;28;20421;-36
2021/11/18 05:10:40;;;;;;;26.83;15.07;;;7.40;99.90;;;;;;5014102;28;20955;-36
2021/11/18 05:13:06;;;;;;;23.40;14.27;;;7.30;99.90;;;;;;5006708;28;20418;-36
2021/11/18 05:15:35;;;;;;;27.57;15.97;;;7.30;99.90;;;;;;5020087;28;20461;-36
2021/11/18 05:18:01;;;;;;;24.03;13.90;;;7.40;99.90;;;;;;5006680;28;20793;-36
2021/11/18 05:20:27;;;;;;;21.10;13.07;;;7.40;99.90;;;;;;5005645;28;20453;-36
2021/11/18 05:22:53;;;;;;;23.03;13.27;;;7.40;99.90;;;;;;5008598;28;20202;-36
2021/11/18 05:25:23;;;;;;;27.97;14.67;;;7.50;99.90;;;;;;5009184;28;20793;-36
2021/11/18 05:27:49;;;;;;;27.53;15.33;;;7.40;99.90;;;;;;5007455;28;20432;-36
2021/11/18 05:30:15;;;;;;;28.27;14.00;;;7.70;99.90;;;;;;5017078;28;20929;-36
2021/11/18 05:32:42;;;;;;;30.40;15.50;;;7.50;99.90;;;;;;5006894;28;20186;-36
2021/11/18 05:35:09;;;;;;;29.03;17.60;;;7.70;99.90;;;;;;5010859;28;20432;-36
2021/11/18 05:37:34;;;;;;;28.40;15.93;;;7.60;99.90;;;;;;5013494;28;20468;-35
2021/11/18 05:40:03;;;;;;;28.90;16.17;;;7.70;99.90;;;;;;5018196;28;20422;-36
2021/11/18 05:42:29;;;;;;;31.60;15.73;;;7.70;99.90;;;;;;5007165;28;20647;-36
2021/11/18 05:44:56;;;;;;;28.10;15.10;;;7.70;99.90;;;;;;5017638;28;20448;-36
2021/11/18 05:47:22;;;;;;;27.27;15.17;;;7.80;99.90;;;;;;5024019;28;20986;-36
2021/11/18 05:49:48;;;;;;;32.97;15.07;;;7.60;99.90;;;;;;5017662;28;20451;-36
2021/11/18 05:52:14;;;;;;;24.60;15.00;;;7.70;99.90;;;;;;5015284;28;20469;-36
2021/11/18 05:54:40;;;;;;;25.07;14.90;;;7.70;99.90;;;;;;5020422;28;20461;-36
2021/11/18 05:57:06;;;;;;;29.40;16.47;;;7.80;99.90;;;;;;5006850;28;20803;-36
2021/11/18 05:59:32;;;;;;;28.43;15.80;;;7.60;99.90;;;;;;5006464;28;20844;-36
2021/11/18 06:01:59;;;;;;;32.20;17.03;;;7.50;99.90;;;;;;5007414;28;20211;-36
2021/11/18 06:04:25;;;;;;;29.53;16.10;;;7.70;99.90;;;;;;5006588;28;20428;-36
2021/11/18 06:06:51;;;;;;;30.67;16.10;;;7.50;99.90;;;;;;5015386;28;20733;-36
2021/11/18 06:09:17;;;;;;;31.07;16.37;;;7.50;99.90;;;;;;5017230;28;20425;-36
2021/11/18 06:11:43;;;;;;;30.03;15.90;;;7.60;99.90;;;;;;5007155;28;20426;-35
2021/11/18 06:14:10;;;;;;;31.50;17.20;;;7.50;99.90;;;;;;5011975;28;20845;-35
2021/11/18 06:16:36;;;;;;;32.67;16.73;;;7.40;99.90;;;;;;5010091;28;20223;-36
2021/11/18 06:19:02;;;;;;;33.30;18.00;;;7.40;99.90;;;;;;5005932;28;20433;-36
2021/11/18 06:21:36;;;;;;;31.73;18.20;;;7.40;99.90;;;;;;5011853;28;20784;-36
2021/11/18 06:24:04;;;;;;;38.60;19.30;;;7.40;99.90;;;;;;5011427;28;20460;-36
2021/11/18 06:26:29;;;;;;;35.63;19.40;;;7.40;99.90;;;;;;5023845;28;20866;-35
2021/11/18 06:28:57;;;;;;;27.47;16.70;;;7.60;99.90;;;;;;5024498;28;20509;-36
2021/11/18 06:31:23;;;;;;;36.20;17.87;;;7.50;99.90;;;;;;5022523;28;20247;-36
2021/11/18 06:33:50;;;;;;;34.90;19.00;;;7.60;99.90;;;;;;5040067;28;20417;-36
2021/11/18 06:36:16;;;;;;;36.27;18.70;;;7.50;99.90;;;;;;5030193;28;20560;-36
2021/11/18 06:38:45;;;;;;;41.70;20.97;;;7.60;99.90;;;;;;5039374;28;20435;-35
2021/11/18 06:41:12;;;;;;;29.27;20.00;;;7.80;99.90;;;;;;5016569;28;20426;-36
2021/11/18 06:43:39;;;;;;;33.07;20.30;;;7.70;99.90;;;;;;5046939;28;20427;-35
2021/11/18 06:46:05;;;;;;;35.60;19.03;;;7.90;99.90;;;;;;5026913;28;20413;-35
2021/11/18 06:48:31;;;;;;;35.23;19.37;;;7.60;99.90;;;;;;5030597;28;20451;-36
2021/11/18 06:51:05;;;;;;;31.47;19.90;;;7.70;99.90;;;;;;5027677;28;20468;-36
2021/11/18 06:53:31;;;;;;;38.07;18.30;;;7.70;99.90;;;;;;5020127;28;20490;-36
2021/11/18 06:55:57;;;;;;;28.60;18.87;;;7.70;99.90;;;;;;5032308;28;20464;-36
2021/11/18 06:58:23;;;;;;;31.43;18.00;;;7.90;99.90;;;;;;5031276;28;20451;-36
2021/11/18 07:00:50;;;;;;;32.03;19.23;;;7.90;99.90;;;;;;5013597;28;20683;-36
2021/11/18 07:03:16;;;;;;;31.10;18.07;;;8.00;99.90;;;;;;5014785;28;20663;-36
2021/11/18 07:05:43;;;;;;;31.70;19.67;;;7.80;99.90;;;;;;5021086;28;20461;-36
2021/11/18 07:08:09;;;;;;;33.03;17.93;;;7.90;99.90;;;;;;5019671;28;20243;-36
2021/11/18 07:10:37;;;;;;;31.60;17.90;;;7.80;99.90;;;;;;5017680;28;20734;-36
2021/11/18 07:13:03;;;;;;;30.97;17.10;;;7.80;99.90;;;;;;5014435;28;20756;-36
2021/11/18 07:15:30;;;;;;;33.70;17.70;;;7.90;99.90;;;;;;5021315;28;20826;-36
2021/11/18 07:17:57;;;;;;;31.23;17.33;;;7.80;99.90;;;;;;5022272;28;20567;-36
2021/11/18 07:20:25;;;;;;;37.23;19.20;;;7.80;99.90;;;;;;5026835;28;20413;-36
2021/11/18 07:22:51;;;;;;;32.50;17.63;;;7.90;99.90;;;;;;5013455;28;20449;-36
2021/11/18 07:25:21;;;;;;;33.93;16.50;;;7.80;99.90;;;;;;5023964;28;20437;-36
2021/11/18 07:27:48;;;;;;;29.00;16.37;;;7.70;99.90;;;;;;5020371;28;20425;-36
2021/11/18 07:30:15;;;;;;;31.20;16.80;;;8.00;99.90;;;;;;5013321;28;20426;-36
2021/11/18 07:32:42;;;;;;;27.40;16.57;;;7.80;99.90;;;;;;5008805;28;20434;-36
2021/11/18 07:35:08;;;;;;;31.07;17.37;;;7.70;99.90;;;;;;5008263;28;20898;-35
2021/11/18 07:37:34;;;;;;;30.70;17.20;;;7.70;99.90;;;;;;5016151;28;20621;-36
2021/11/18 07:40:01;;;;;;;26.67;15.20;;;7.90;99.90;;;;;;5013402;28;20705;-36
2021/11/18 07:42:27;;;;;;;27.87;16.40;;;7.70;99.90;;;;;;5008925;28;20465;-36
2021/11/18 07:44:53;;;;;;;30.23;16.03;;;8.00;99.90;;;;;;5017395;28;20429;-36
2021/11/18 07:47:18;;;;;;;30.77;15.33;;;8.00;99.90;;;;;;5015059;28;20517;-36
2021/11/18 07:49:44;;;;;;;26.20;15.50;;;7.90;99.90;;;;;;5020336;28;20524;-36
2021/11/18 07:52:10;;;;;;;29.70;16.70;;;7.90;99.90;;;;;;5030291;28;20194;-36
2021/11/18 07:54:35;;;;;;;29.30;15.90;;;8.00;99.90;;;;;;5016928;28;20205;-36
2021/11/18 07:57:01;;;;;;;30.90;16.27;;;8.00;99.90;;;;;;5037365;28;20267;-36
2021/11/18 07:59:27;;;;;;;32.47;17.03;;;7.80;99.90;;;;;;5034056;28;20461;-36
2021/11/18 08:01:53;;;;;;;35.93;17.37;;;7.90;99.90;;;;;;5030121;28;21313;-36
2021/11/18 08:04:19;;;;;;;28.83;15.47;;;7.90;99.90;;;;;;5033635;28;20720;-36
2021/11/18 08:06:46;;;;;;;29.90;14.23;;;8.00;99.90;;;;;;5043986;28;20427;-36
2021/11/18 08:09:13;;;;;;;21.87;13.90;;;8.10;99.90;;;;;;5027324;28;20897;-36
2021/11/18 08:11:45;;;;;;;27.47;14.20;;;8.10;99.90;;;;;;5029061;28;20429;-36
2021/11/18 08:14:13;;;;;;;23.37;13.87;;;8.20;99.90;;;;;;5026635;28;20426;-35
2021/11/18 08:16:40;;;;;;;24.53;14.50;;;8.20;99.90;;;;;;5010704;28;20469;-36
2021/11/18 08:19:06;;;;;;;30.97;14.27;;;8.20;99.90;;;;;;5006922;28;20430;-36
2021/11/18 08:21:33;;;;;;;21.90;12.80;;;8.00;99.90;;;;;;5009669;28;21497;-36
2021/11/18 08:23:59;;;;;;;29.30;12.77;;;8.00;99.90;;;;;;5019248;28;20194;-36
2021/11/18 08:26:26;;;;;;;22.30;13.40;;;8.00;99.90;;;;;;5014807;28;20442;-35
2021/11/18 08:28:53;;;;;;;21.60;12.70;;;8.00;99.90;;;;;;5021244;28;20512;-36
2021/11/18 08:31:20;;;;;;;25.30;13.43;;;8.10;99.90;;;;;;5012512;28;20908;-36
2021/11/18 08:33:46;;;;;;;25.17;14.83;;;8.10;99.90;;;;;;4998891;28;20432;-36
2021/11/18 08:36:12;;;;;;;24.47;12.40;;;8.20;99.90;;;;;;5007420;28;20816;-36
2021/11/18 08:38:39;;;;;;;27.50;13.70;;;8.50;99.90;;;;;;5017806;28;20438;-36
2021/11/18 08:41:08;;;;;;;30.27;12.80;;;8.50;99.90;;;;;;5017204;28;20422;-36
2021/11/18 08:43:37;;;;;;;29.50;12.83;;;8.40;99.90;;;;;;5007607;28;20786;-36
2021/11/18 08:46:05;;;;;;;21.57;12.27;;;8.30;99.90;;;;;;5021122;28;20430;-36
2021/11/18 08:48:32;;;;;;;22.77;12.60;;;8.40;99.90;;;;;;5021428;28;20451;-36
2021/11/18 08:50:59;;;;;;;24.43;12.90;;;8.40;99.90;;;;;;5043496;28;20432;-36
2021/11/18 08:53:27;;;;;;;23.03;12.10;;;8.40;99.90;;;;;;5021205;28;20731;-36
2021/11/18 08:55:53;;;;;;;21.83;12.43;;;8.60;99.90;;;;;;5024234;28;21025;-36
2021/11/18 08:58:23;;;;;;;24.07;13.30;;;8.60;99.90;;;;;;5015690;28;20450;-36
2021/11/18 09:01:05;;;;;;;25.10;13.40;;;8.50;99.90;;;;;;5010881;28;20972;-36
2021/11/18 09:03:33;;;;;;;27.67;13.20;;;8.80;99.90;;;;;;5007477;28;20423;-36
2021/11/18 09:06:01;;;;;;;20.13;11.90;;;8.60;99.90;;;;;;5007725;28;20430;-36
2021/11/18 09:08:27;;;;;;;23.13;12.60;;;8.70;99.90;;;;;;5015049;28;20531;-36
2021/11/18 09:10:53;;;;;;;27.20;11.83;;;8.70;99.90;;;;;;5021943;28;20428;-36
2021/11/18 09:13:20;;;;;;;24.53;12.40;;;9.00;99.90;;;;;;5011108;28;20445;-36
2021/11/18 09:15:45;;;;;;;27.13;14.00;;;9.30;99.90;;;;;;5015726;28;20241;-36
2021/11/18 09:18:12;;;;;;;30.00;12.60;;;9.30;99.90;;;;;;5010286;28;20422;-36
2021/11/18 09:20:38;;;;;;;22.93;12.10;;;9.70;99.90;;;;;;5007719;28;20201;-36
2021/11/18 09:23:05;;;;;;;22.90;12.50;;;9.80;99.90;;;;;;5011212;28;20467;-36
2021/11/18 09:25:40;;;;;;;24.50;12.67;;;10.00;99.90;;;;;;5020510;28;20425;-36
2021/11/18 09:28:06;;;;;;;23.90;11.57;;;10.10;99.90;;;;;;5007041;28;20449;-36
2021/11/18 09:30:36;;;;;;;22.23;11.30;;;10.20;99.90;;;;;;5012946;28;20448;-36
2021/11/18 09:33:03;;;;;;;21.07;12.00;;;10.30;99.90;;;;;;5009140;28;20880;-36
2021/11/18 09:35:34;;;;;;;21.33;11.77;;;10.50;99.90;;;;;;5007841;28;20450;-36
2021/11/18 09:38:01;;;;;;;20.80;12.10;;;10.40;99.90;;;;;;5012319;28;21044;-36
2021/11/18 09:40:43;;;;;;;21.97;11.43;;;10.40;99.90;;;;;;5021362;28;20425;-36
2021/11/18 09:43:33;;;;;;;21.43;11.60;;;10.40;99.90;;;;;;5006788;28;20426;-36
2021/11/18 09:46:30;;;;;;;19.70;11.33;;;10.70;99.90;;;;;;5020753;28;20426;-36
2021/11/18 09:49:14;;;;;;;19.10;11.30;;;10.90;99.90;;;;;;5019705;28;20448;-36
2021/11/18 09:51:42;;;;;;;33.10;12.13;;;10.90;99.90;;;;;;5007307;28;20433;-36
2021/11/18 09:54:13;;;;;;;20.77;11.10;;;10.80;99.90;;;;;;5018592;28;20422;-36
2021/11/18 09:56:50;;;;;;;15.97;10.80;;;11.00;99.90;;;;;;5018223;28;20465;-36
2021/11/18 09:59:42;;;;;;;22.00;10.10;;;11.30;99.90;;;;;;5009233;28;20471;-36
2021/11/18 10:02:29;;;;;;;17.83;9.70;;;11.30;99.90;;;;;;5024038;28;20426;-37
2021/11/18 10:05:07;;;;;;;19.10;10.10;;;11.20;99.90;;;;;;5010265;28;20417;-36
2021/11/18 10:07:54;;;;;;;25.17;10.67;;;11.20;99.90;;;;;;5010901;28;20441;-36
2021/11/18 10:10:49;;;;;;;21.63;10.50;;;11.00;99.90;;;;;;5012970;28;20441;-36
2021/11/18 10:13:24;;;;;;;15.93;10.83;;;10.80;99.90;;;;;;5010272;28;20785;-36
2021/11/18 10:16:41;;;;;;;18.83;10.70;;;10.70;99.90;;;;;;5015894;28;20470;-36
2021/11/18 10:19:09;;;;;;;19.37;11.00;;;10.50;99.90;;;;;;4967330;28;20423;-36
2021/11/18 10:21:44;;;;;;;20.50;12.03;;;10.40;99.90;;;;;;4968627;28;20455;-36
2021/11/18 10:24:14;;;;;;;16.77;9.43;;;10.80;99.90;;;;;;4993331;28;20511;-36
2021/11/18 10:26:57;;;;;;;21.47;9.93;;;10.50;99.90;;;;;;5021100;28;20433;-36
2021/11/18 10:29:27;;;;;;;24.80;8.87;;;10.50;99.90;;;;;;5011129;28;20511;-37
2021/11/18 10:32:06;;;;;;;23.37;11.07;;;10.70;99.90;;;;;;5015926;28;20525;-36
2021/11/18 10:34:56;;;;;;;20.90;9.33;;;10.90;99.90;;;;;;5010036;28;20426;-36
2021/11/18 10:37:26;;;;;;;21.80;9.47;;;10.60;99.90;;;;;;5014365;28;20478;-36
2021/11/18 10:39:52;;;;;;;18.40;9.87;;;10.70;99.90;;;;;;5016260;28;20789;-36
2021/11/18 10:42:20;;;;;;;19.13;9.10;;;10.60;99.90;;;;;;5018694;28;20422;-36
2021/11/18 10:44:51;;;;;;;19.57;8.50;;;10.60;99.90;;;;;;5017993;28;20192;-36
2021/11/18 10:47:30;;;;;;;23.07;9.80;;;10.20;99.90;;;;;;5015546;28;20434;-36
2021/11/18 10:50:09;;;;;;;19.97;9.47;;;10.30;99.90;;;;;;5019454;28;20437;-36
2021/11/18 10:52:46;;;;;;;21.27;9.80;;;10.30;99.90;;;;;;5014358;28;20803;-36
2021/11/18 10:55:32;;;;;;;22.83;10.43;;;10.30;99.90;;;;;;5016984;28;21010;-36
2021/11/18 10:58:05;;;;;;;18.43;8.93;;;10.30;99.90;;;;;;5014168;28;20449;-36
2021/11/18 11:00:55;;;;;;;23.97;13.10;;;10.20;99.90;;;;;;5010546;28;20430;-36
2021/11/18 11:03:30;;;;;;;20.23;9.80;;;10.40;99.90;;;;;;5014428;28;20572;-36
2021/11/18 11:06:25;;;;;;;22.87;13.50;;;10.50;99.90;;;;;;5009729;28;20917;-37
2021/11/18 11:09:15;;;;;;;19.30;9.20;;;10.50;99.90;;;;;;5023279;28;20583;-36
2021/11/18 11:11:58;;;;;;;23.90;9.03;;;10.70;99.90;;;;;;5025028;28;20428;-36
2021/11/18 11:14:42;;;;;;;23.63;10.10;;;10.60;99.90;;;;;;5016055;28;20418;-36
2021/11/18 11:17:17;;;;;;;19.77;10.00;;;10.80;99.90;;;;;;5009602;28;20832;-36
2021/11/18 11:19:52;;;;;;;17.43;9.17;;;10.70;99.90;;;;;;5008186;28;21137;-36
2021/11/18 11:22:30;;;;;;;27.60;10.50;;;10.70;99.90;;;;;;5010738;28;20426;-36
2021/11/18 11:25:18;;;;;;;16.20;9.20;;;10.80;99.90;;;;;;5020533;28;20425;-36
2021/11/18 11:28:09;;;;;;;23.30;11.13;;;10.90;99.90;;;;;;5021704;28;20414;-36
2021/11/18 11:30:50;;;;;;;21.80;10.20;;;11.10;99.90;;;;;;5009540;28;20441;-36
2021/11/18 11:33:39;;;;;;;16.97;9.50;;;10.90;99.90;;;;;;5015924;28;20499;-36
2021/11/18 11:36:19;;;;;;;26.43;11.17;;;11.00;99.90;;;;;;5029146;28;20500;-36
2021/11/18 11:39:12;;;;;;;22.73;11.10;;;11.10;99.90;;;;;;5016616;28;20895;-36
2021/11/18 11:42:14;;;;;;;20.80;10.17;;;11.70;99.90;;;;;;5021635;28;20431;-36
2021/11/18 11:45:12;;;;;;;20.53;11.30;;;11.60;99.90;;;;;;5015784;28;20785;-36
2021/11/18 11:48:08;;;;;;;19.10;10.67;;;11.80;99.90;;;;;;5018276;28;20424;-36
2021/11/18 11:50:52;;;;;;;18.23;9.60;;;11.70;99.90;;;;;;5013365;28;20787;-36
2021/11/18 11:53:40;;;;;;;18.77;10.60;;;11.80;99.90;;;;;;5011730;28;20463;-36
2021/11/18 11:56:29;;;;;;;16.23;10.20;;;11.90;99.90;;;;;;5013128;28;20818;-36
2021/11/18 11:59:02;;;;;;;19.27;10.13;;;12.00;99.90;;;;;;5020370;28;20436;-36
2021/11/18 12:01:42;;;;;;;16.73;9.80;;;11.90;99.90;;;;;;5028519;28;20421;-36
2021/11/18 12:04:31;;;;;;;18.03;9.97;;;11.90;99.90;;;;;;5008237;28;20418;-36
2021/11/18 12:07:21;;;;;;;17.50;9.87;;;12.00;99.90;;;;;;5007568;28;20846;-36
2021/11/18 12:10:19;;;;;;;16.63;11.00;;;11.60;99.90;;;;;;5019459;28;20538;-36
2021/11/18 12:13:29;;;;;;;24.03;10.70;;;11.80;99.90;;;;;;5022909;28;20472;-36
2021/11/18 12:16:00;;;;;;;17.53;10.70;;;11.70;99.90;;;;;;5008325;28;20448;-36
2021/11/18 12:18:38;;;;;;;19.13;10.33;;;11.50;99.90;;;;;;5024100;28;20510;-36
2021/11/18 12:21:04;;;;;;;19.00;10.93;;;11.50;99.90;;;;;;5027300;28;20413;-36
2021/11/18 12:24:09;;;;;;;19.23;9.50;;;11.40;99.90;;;;;;5013076;28;20855;-36
2021/11/18 12:27:22;;;;;;;24.70;9.53;;;11.30;99.90;;;;;;5020464;28;20414;-36
2021/11/18 12:29:51;;;;;;;18.40;9.93;;;11.30;99.90;;;;;;5005228;28;20433;-36
2021/11/18 12:32:16;;;;;;;23.77;9.67;;;11.30;99.90;;;;;;5015553;28;20915;-36
2021/11/18 12:34:54;;;;;;;16.33;7.70;;;10.90;99.90;;;;;;5025895;28;20598;-36
2021/11/18 12:37:56;;;;;;;16.23;7.40;;;10.90;99.90;;;;;;5026172;28;20221;-36
2021/11/18 12:40:49;;;;;;;18.73;7.53;;;10.90;99.90;;;;;;5012035;28;20433;-36
2021/11/18 12:43:33;;;;;;;12.97;6.27;;;10.90;99.90;;;;;;5007276;28;20980;-36
2021/11/18 12:46:19;;;;;;;13.30;6.70;;;11.00;99.90;;;;;;5025357;28;20413;-36
2021/11/18 12:48:51;;;;;;;12.93;5.40;;;11.00;99.90;;;;;;5026399;28;20417;-36
2021/11/18 12:51:49;;;;;;;18.83;5.70;;;11.00;99.90;;;;;;5007946;28;20429;-36
2021/11/18 12:54:35;;;;;;;16.67;6.43;;;10.90;99.90;;;;;;5014377;28;20429;-36